Home   Weather   USA   West Yellowstone   Past weeks
Flag for USA

Past Weather in West Yellowstone, Montana, USA — Yesterday and Last 2 Weeks

Currently: 64 °F. Sunny. (Weather station: West Yellowstone Airport, USA). See more current weather

Past Weather in West Yellowstone — Graph

°F

West Yellowstone Temperature Yesterday

Maximum temperature yesterday: 81 °F (at 2:55 pm)
Minimum temperature yesterday: 36 °F (at 5:55 am)
Average temperature yesterday: 59 °F

High & Low Weather Summary for the Past Weeks

 TemperatureHumidityPressure
High81 °F (Jun 28, 3:15 pm)100% (Jun 19, 2:35 am)30.49 "Hg (Jun 19, 2:35 am)
Low28 °F (Jun 21, 4:15 am)11% (Jun 30, 2:55 pm)29.93 "Hg (Jun 18, 8:15 pm)
Average54 °F62%30.21 "Hg
* Reported Jun 18 8:15 pm — Jul 3 8:15 pm, West Yellowstone. Weather by CustomWeather, © 2022

Note: Actual official high and low records may vary slightly from our data, if they occured in-between our weather recording intervals... More about our weather records

West Yellowstone Weather History for the Previous 24 Hours

Scroll right to see more
 ConditionsComfort  
Time TempWeatherWind HumidityBarometerVisibility
8:15 pm
Sun, Jul 3
66 °FSunny.No wind46%29.97 "Hg10 mi
7:55 pm70 °FScattered clouds.5 mph38%29.96 "Hg10 mi
7:35 pm70 °FScattered clouds.6 mph43%29.97 "Hg10 mi
7:15 pm68 °FSunny.7 mph46%29.97 "Hg10 mi
6:55 pm66 °FSunny.No wind52%29.96 "Hg10 mi
5:35 pm73 °FSunny.7 mph36%29.95 "Hg10 mi
4:55 pm73 °FSunny.7 mph36%29.96 "Hg10 mi
4:35 pm73 °FSunny.8 mph36%29.97 "Hg10 mi
4:15 pm73 °FSunny.12 mph36%29.97 "Hg10 mi
3:55 pm75 °FPassing clouds.13 mph29%29.97 "Hg10 mi
3:35 pm77 °FScattered clouds.12 mph30%29.98 "Hg10 mi
3:15 pm77 °FSunny.23 mph24%29.96 "Hg10 mi
2:35 pm75 °FScattered clouds.21 mph29%29.96 "Hg10 mi
2:15 pm77 °FSunny.23 mph28%29.96 "Hg10 mi
1:35 pm75 °FPassing clouds.20 mph27%29.97 "Hg10 mi
1:15 pm75 °FPassing clouds.14 mph29%29.96 "Hg10 mi
12:35 pm73 °FSunny.12 mph31%29.98 "Hg10 mi
12:15 pm73 °FSunny.15 mph33%29.98 "Hg10 mi
11:55 am72 °FSunny.7 mph36%29.99 "Hg10 mi
11:15 am72 °FSunny.13 mph36%29.98 "Hg10 mi
10:55 am72 °FSunny.10 mph36%29.98 "Hg10 mi
10:35 am72 °FSunny.18 mph33%29.98 "Hg10 mi
10:15 am68 °FSunny.10 mph43%29.98 "Hg10 mi
9:55 am66 °FSunny.No wind49%29.98 "Hg10 mi
9:35 am64 °FSunny.No wind52%29.98 "Hg10 mi
9:15 am63 °FSunny.No wind56%29.98 "Hg10 mi
8:55 am61 °FSunny.No wind59%29.99 "Hg10 mi
8:35 am59 °FSunny.No wind63%29.98 "Hg10 mi
8:15 am57 °FPassing clouds.No wind72%29.99 "Hg10 mi
7:55 am54 °FSunny.No wind82%30.00 "Hg10 mi
7:35 am52 °FSunny.No wind94%29.99 "Hg10 mi
6:55 am48 °FSunny.No wind100%29.99 "Hg10 mi
6:35 am46 °FPassing clouds.No wind100%29.99 "Hg10 mi
5:55 am45 °FSunny.No wind100%30.00 "Hg10 mi
5:15 am46 °FPassing clouds.5 mph100%30.01 "Hg10 mi
4:55 am48 °FPartly cloudy.No wind100%30.01 "Hg10 mi
4:35 am48 °FOvercast.No wind100%30.02 "Hg10 mi
4:15 am48 °FMostly cloudy.No wind100%30.03 "Hg10 mi
3:55 am48 °FPassing clouds.No wind100%30.03 "Hg10 mi
3:35 am48 °FOvercast.No wind100%30.03 "Hg10 mi
3:15 am48 °FOvercast.3 mph100%30.03 "Hg10 mi
2:55 am48 °FOvercast.No wind100%30.03 "Hg10 mi
2:15 am48 °FMostly cloudy.No wind100%30.03 "Hg10 mi
1:35 am48 °FOvercast.No wind94%30.04 "Hg10 mi
12:55 am48 °FPassing clouds.No wind100%30.03 "Hg10 mi
12:35 am52 °FPassing clouds.No wind82%30.04 "Hg10 mi
12:15 am52 °FPassing clouds.No wind82%30.04 "Hg10 mi
11:55 pm
Sat, Jul 2
52 °FPassing clouds.5 mph88%30.04 "Hg10 mi
11:15 pm52 °FClear.No wind88%30.06 "Hg10 mi
10:55 pm52 °FClear.No wind88%30.06 "Hg10 mi
10:35 pm52 °FClear.No wind82%30.07 "Hg10 mi
10:15 pm54 °FClear.5 mph77%30.06 "Hg10 mi
9:55 pm55 °FClear.3 mph72%30.07 "Hg10 mi
9:35 pm57 °FClear.3 mph67%30.07 "Hg10 mi
9:15 pm59 °FClear.7 mph59%30.07 "Hg10 mi
Weather by CustomWeather, © 2022

See weather overview